sensor_id;sensor_type;location;lat;lon;timestamp;temperature;humidity
55828;DHT22;41758;51.992;5.890;2023-02-15T00:00:22;9.80;62.80
55828;DHT22;41758;51.992;5.890;2023-02-15T00:02:48;9.80;63.60
55828;DHT22;41758;51.992;5.890;2023-02-15T00:05:14;9.70;63.70
55828;DHT22;41758;51.992;5.890;2023-02-15T00:07:40;9.70;63.30
55828;DHT22;41758;51.992;5.890;2023-02-15T00:10:06;9.70;63.60
55828;DHT22;41758;51.992;5.890;2023-02-15T00:12:32;9.70;64.00
55828;DHT22;41758;51.992;5.890;2023-02-15T00:14:58;9.70;63.90
55828;DHT22;41758;51.992;5.890;2023-02-15T00:17:26;9.80;63.90
55828;DHT22;41758;51.992;5.890;2023-02-15T00:19:52;9.70;64.20
55828;DHT22;41758;51.992;5.890;2023-02-15T00:22:18;9.80;63.90
55828;DHT22;41758;51.992;5.890;2023-02-15T00:24:44;9.70;63.50
55828;DHT22;41758;51.992;5.890;2023-02-15T00:27:09;9.70;64.20
55828;DHT22;41758;51.992;5.890;2023-02-15T00:29:35;9.80;64.50
55828;DHT22;41758;51.992;5.890;2023-02-15T00:32:01;9.80;64.50
55828;DHT22;41758;51.992;5.890;2023-02-15T00:34:27;9.80;63.90
55828;DHT22;41758;51.992;5.890;2023-02-15T00:36:56;9.80;64.00
55828;DHT22;41758;51.992;5.890;2023-02-15T00:39:21;9.80;63.70
55828;DHT22;41758;51.992;5.890;2023-02-15T00:41:49;9.70;63.10
55828;DHT22;41758;51.992;5.890;2023-02-15T00:44:15;9.70;62.90
55828;DHT22;41758;51.992;5.890;2023-02-15T00:46:41;9.70;63.90
55828;DHT22;41758;51.992;5.890;2023-02-15T00:49:08;9.70;63.20
55828;DHT22;41758;51.992;5.890;2023-02-15T00:51:34;9.60;62.70
55828;DHT22;41758;51.992;5.890;2023-02-15T00:54:00;9.60;62.50
55828;DHT22;41758;51.992;5.890;2023-02-15T00:56:26;9.50;62.30
55828;DHT22;41758;51.992;5.890;2023-02-15T00:58:54;9.50;62.50
55828;DHT22;41758;51.992;5.890;2023-02-15T01:01:20;9.40;62.30
55828;DHT22;41758;51.992;5.890;2023-02-15T01:03:46;9.40;62.30
55828;DHT22;41758;51.992;5.890;2023-02-15T01:06:14;9.30;62.50
55828;DHT22;41758;51.992;5.890;2023-02-15T01:08:43;9.30;62.80
55828;DHT22;41758;51.992;5.890;2023-02-15T01:11:14;9.30;63.30
55828;DHT22;41758;51.992;5.890;2023-02-15T01:13:41;9.30;63.00
55828;DHT22;41758;51.992;5.890;2023-02-15T01:16:07;9.30;63.70
55828;DHT22;41758;51.992;5.890;2023-02-15T01:18:34;9.30;63.60
55828;DHT22;41758;51.992;5.890;2023-02-15T01:20:59;9.20;63.50
55828;DHT22;41758;51.992;5.890;2023-02-15T01:23:25;9.20;63.60
55828;DHT22;41758;51.992;5.890;2023-02-15T01:25:51;9.20;63.80
55828;DHT22;41758;51.992;5.890;2023-02-15T01:28:17;9.20;63.90
55828;DHT22;41758;51.992;5.890;2023-02-15T01:30:43;9.20;63.80
55828;DHT22;41758;51.992;5.890;2023-02-15T01:33:10;9.20;63.90
55828;DHT22;41758;51.992;5.890;2023-02-15T01:35:44;9.20;63.80
55828;DHT22;41758;51.992;5.890;2023-02-15T01:38:11;9.20;63.60
55828;DHT22;41758;51.992;5.890;2023-02-15T01:40:37;9.20;63.80
55828;DHT22;41758;51.992;5.890;2023-02-15T01:43:09;9.20;63.90
55828;DHT22;41758;51.992;5.890;2023-02-15T01:45:37;9.20;63.90
55828;DHT22;41758;51.992;5.890;2023-02-15T01:48:04;9.20;64.00
55828;DHT22;41758;51.992;5.890;2023-02-15T01:50:43;9.20;63.90
55828;DHT22;41758;51.992;5.890;2023-02-15T01:53:24;9.10;63.90
55828;DHT22;41758;51.992;5.890;2023-02-15T01:56:00;9.20;64.10
55828;DHT22;41758;51.992;5.890;2023-02-15T01:58:28;9.20;64.00
55828;DHT22;41758;51.992;5.890;2023-02-15T02:00:56;9.20;63.80
55828;DHT22;41758;51.992;5.890;2023-02-15T02:03:30;9.10;64.00
55828;DHT22;41758;51.992;5.890;2023-02-15T02:06:02;9.10;63.80
55828;DHT22;41758;51.992;5.890;2023-02-15T02:08:28;9.10;63.70
55828;DHT22;41758;51.992;5.890;2023-02-15T02:10:54;9.10;63.50
55828;DHT22;41758;51.992;5.890;2023-02-15T02:13:20;9.00;63.70
55828;DHT22;41758;51.992;5.890;2023-02-15T02:16:04;9.10;64.20
55828;DHT22;41758;51.992;5.890;2023-02-15T02:21:55;9.00;63.80
55828;DHT22;41758;51.992;5.890;2023-02-15T02:36:00;8.80;63.60
55828;DHT22;41758;51.992;5.890;2023-02-15T02:49:13;8.80;64.10
55828;DHT22;41758;51.992;5.890;2023-02-15T02:51:39;8.70;64.20
55828;DHT22;41758;51.992;5.890;2023-02-15T02:54:06;8.80;64.40
55828;DHT22;41758;51.992;5.890;2023-02-15T02:56:47;8.70;64.40
55828;DHT22;41758;51.992;5.890;2023-02-15T02:59:18;8.70;64.30
55828;DHT22;41758;51.992;5.890;2023-02-15T03:01:56;8.70;64.40
55828;DHT22;41758;51.992;5.890;2023-02-15T03:04:31;8.70;64.30
55828;DHT22;41758;51.992;5.890;2023-02-15T03:07:01;8.70;64.20
55828;DHT22;41758;51.992;5.890;2023-02-15T03:09:49;8.70;64.10
55828;DHT22;41758;51.992;5.890;2023-02-15T03:12:29;8.70;63.90
55828;DHT22;41758;51.992;5.890;2023-02-15T03:15:04;8.70;64.30
55828;DHT22;41758;51.992;5.890;2023-02-15T03:17:33;8.70;64.20
55828;DHT22;41758;51.992;5.890;2023-02-15T03:20:04;8.60;64.00
55828;DHT22;41758;51.992;5.890;2023-02-15T03:22:42;8.60;64.10
55828;DHT22;41758;51.992;5.890;2023-02-15T03:25:21;8.60;64.50
55828;DHT22;41758;51.992;5.890;2023-02-15T03:27:52;8.60;64.30
55828;DHT22;41758;51.992;5.890;2023-02-15T03:30:22;8.60;64.10
55828;DHT22;41758;51.992;5.890;2023-02-15T03:32:49;8.60;64.50
55828;DHT22;41758;51.992;5.890;2023-02-15T03:35:17;8.60;64.30
55828;DHT22;41758;51.992;5.890;2023-02-15T03:37:57;8.60;64.30
55828;DHT22;41758;51.992;5.890;2023-02-15T03:40:38;8.60;64.80
55828;DHT22;41758;51.992;5.890;2023-02-15T03:43:47;8.60;64.20
55828;DHT22;41758;51.992;5.890;2023-02-15T03:46:25;8.50;64.20
55828;DHT22;41758;51.992;5.890;2023-02-15T03:49:07;8.50;64.20
55828;DHT22;41758;51.992;5.890;2023-02-15T03:51:37;8.50;64.30
55828;DHT22;41758;51.992;5.890;2023-02-15T03:54:20;8.40;64.20
55828;DHT22;41758;51.992;5.890;2023-02-15T03:57:06;8.40;64.20
55828;DHT22;41758;51.992;5.890;2023-02-15T03:59:51;8.40;64.00
55828;DHT22;41758;51.992;5.890;2023-02-15T04:05:28;8.30;64.20
55828;DHT22;41758;51.992;5.890;2023-02-15T04:07:54;8.30;64.40
55828;DHT22;41758;51.992;5.890;2023-02-15T04:10:19;8.30;64.50
55828;DHT22;41758;51.992;5.890;2023-02-15T04:13:04;8.30;64.70
55828;DHT22;41758;51.992;5.890;2023-02-15T04:15:29;8.30;64.50
55828;DHT22;41758;51.992;5.890;2023-02-15T04:18:14;8.30;64.50
55828;DHT22;41758;51.992;5.890;2023-02-15T04:20:43;8.30;64.50
55828;DHT22;41758;51.992;5.890;2023-02-15T04:23:28;8.30;64.40
55828;DHT22;41758;51.992;5.890;2023-02-15T04:26:12;8.20;64.30
55828;DHT22;41758;51.992;5.890;2023-02-15T04:28:38;8.20;64.10
55828;DHT22;41758;51.992;5.890;2023-02-15T04:31:03;8.20;64.50
55828;DHT22;41758;51.992;5.890;2023-02-15T04:33:29;8.20;64.60
55828;DHT22;41758;51.992;5.890;2023-02-15T04:35:55;8.20;64.50
55828;DHT22;41758;51.992;5.890;2023-02-15T04:38:22;8.20;64.30
55828;DHT22;41758;51.992;5.890;2023-02-15T04:40:52;8.10;64.10
55828;DHT22;41758;51.992;5.890;2023-02-15T04:43:19;8.10;64.00
55828;DHT22;41758;51.992;5.890;2023-02-15T04:45:49;8.10;64.00
55828;DHT22;41758;51.992;5.890;2023-02-15T04:48:18;8.10;64.00
55828;DHT22;41758;51.992;5.890;2023-02-15T04:50:44;8.10;64.10
55828;DHT22;41758;51.992;5.890;2023-02-15T04:53:11;8.10;64.30
55828;DHT22;41758;51.992;5.890;2023-02-15T04:55:37;8.10;64.40
55828;DHT22;41758;51.992;5.890;2023-02-15T04:58:02;8.00;64.40
55828;DHT22;41758;51.992;5.890;2023-02-15T05:00:28;8.00;64.30
55828;DHT22;41758;51.992;5.890;2023-02-15T05:02:54;8.00;64.00
55828;DHT22;41758;51.992;5.890;2023-02-15T05:05:20;8.00;64.00
55828;DHT22;41758;51.992;5.890;2023-02-15T05:07:45;7.90;64.10
55828;DHT22;41758;51.992;5.890;2023-02-15T05:10:11;7.90;64.20
55828;DHT22;41758;51.992;5.890;2023-02-15T05:12:37;7.90;64.20
55828;DHT22;41758;51.992;5.890;2023-02-15T05:15:02;7.90;64.30
55828;DHT22;41758;51.992;5.890;2023-02-15T05:17:28;7.90;64.10
55828;DHT22;41758;51.992;5.890;2023-02-15T05:19:54;7.90;64.10
55828;DHT22;41758;51.992;5.890;2023-02-15T05:22:20;7.90;64.10
55828;DHT22;41758;51.992;5.890;2023-02-15T05:24:46;7.80;64.30
55828;DHT22;41758;51.992;5.890;2023-02-15T05:27:30;7.90;64.40
55828;DHT22;41758;51.992;5.890;2023-02-15T05:30:14;7.80;64.30
55828;DHT22;41758;51.992;5.890;2023-02-15T05:32:40;7.80;64.40
55828;DHT22;41758;51.992;5.890;2023-02-15T05:35:06;7.80;64.30
55828;DHT22;41758;51.992;5.890;2023-02-15T05:37:33;7.80;64.40
55828;DHT22;41758;51.992;5.890;2023-02-15T05:39:58;7.80;64.30
55828;DHT22;41758;51.992;5.890;2023-02-15T05:42:24;7.80;64.30
55828;DHT22;41758;51.992;5.890;2023-02-15T05:44:50;7.80;64.30
55828;DHT22;41758;51.992;5.890;2023-02-15T05:47:16;7.70;64.20
55828;DHT22;41758;51.992;5.890;2023-02-15T05:49:41;7.70;64.20
55828;DHT22;41758;51.992;5.890;2023-02-15T05:52:07;7.70;64.10
55828;DHT22;41758;51.992;5.890;2023-02-15T05:54:33;7.70;64.00
55828;DHT22;41758;51.992;5.890;2023-02-15T05:56:59;7.60;63.80
55828;DHT22;41758;51.992;5.890;2023-02-15T05:59:25;7.60;63.90
55828;DHT22;41758;51.992;5.890;2023-02-15T06:01:51;7.60;64.40
55828;DHT22;41758;51.992;5.890;2023-02-15T06:04:16;7.60;64.10
55828;DHT22;41758;51.992;5.890;2023-02-15T06:06:42;7.60;64.00
55828;DHT22;41758;51.992;5.890;2023-02-15T06:09:09;7.60;64.20
55828;DHT22;41758;51.992;5.890;2023-02-15T06:11:35;7.60;64.10
55828;DHT22;41758;51.992;5.890;2023-02-15T06:14:01;7.50;64.30
55828;DHT22;41758;51.992;5.890;2023-02-15T06:16:27;7.50;64.20
55828;DHT22;41758;51.992;5.890;2023-02-15T06:18:53;7.50;64.40
55828;DHT22;41758;51.992;5.890;2023-02-15T06:21:18;7.50;64.10
55828;DHT22;41758;51.992;5.890;2023-02-15T06:23:44;7.50;63.80
55828;DHT22;41758;51.992;5.890;2023-02-15T06:26:10;7.40;63.80
55828;DHT22;41758;51.992;5.890;2023-02-15T06:28:36;7.40;63.70
55828;DHT22;41758;51.992;5.890;2023-02-15T06:31:03;7.40;64.00
55828;DHT22;41758;51.992;5.890;2023-02-15T06:33:29;7.40;64.00
55828;DHT22;41758;51.992;5.890;2023-02-15T06:35:56;7.30;63.80
55828;DHT22;41758;51.992;5.890;2023-02-15T06:38:25;7.30;64.20
55828;DHT22;41758;51.992;5.890;2023-02-15T06:40:50;7.30;64.60
55828;DHT22;41758;51.992;5.890;2023-02-15T06:43:16;7.30;64.00
55828;DHT22;41758;51.992;5.890;2023-02-15T06:45:42;7.30;64.10
55828;DHT22;41758;51.992;5.890;2023-02-15T06:48:08;7.30;64.20
55828;DHT22;41758;51.992;5.890;2023-02-15T06:50:34;7.30;64.40
55828;DHT22;41758;51.992;5.890;2023-02-15T06:53:00;7.30;64.00
55828;DHT22;41758;51.992;5.890;2023-02-15T06:55:26;7.30;64.30
55828;DHT22;41758;51.992;5.890;2023-02-15T06:57:51;7.30;64.20
55828;DHT22;41758;51.992;5.890;2023-02-15T07:00:18;7.30;64.40
55828;DHT22;41758;51.992;5.890;2023-02-15T07:02:44;7.30;64.40
55828;DHT22;41758;51.992;5.890;2023-02-15T07:05:10;7.30;64.50
55828;DHT22;41758;51.992;5.890;2023-02-15T07:07:36;7.30;64.50
55828;DHT22;41758;51.992;5.890;2023-02-15T07:10:02;7.30;64.50
55828;DHT22;41758;51.992;5.890;2023-02-15T07:12:28;7.30;64.40
55828;DHT22;41758;51.992;5.890;2023-02-15T07:15:15;7.40;64.90
55828;DHT22;41758;51.992;5.890;2023-02-15T07:17:41;7.40;65.00
55828;DHT22;41758;51.992;5.890;2023-02-15T07:20:14;7.40;64.60
55828;DHT22;41758;51.992;5.890;2023-02-15T07:22:40;7.40;64.60
55828;DHT22;41758;51.992;5.890;2023-02-15T07:25:07;7.40;64.30
55828;DHT22;41758;51.992;5.890;2023-02-15T07:27:33;7.40;64.30
55828;DHT22;41758;51.992;5.890;2023-02-15T07:29:59;7.40;64.60
55828;DHT22;41758;51.992;5.890;2023-02-15T07:32:29;7.40;65.00
55828;DHT22;41758;51.992;5.890;2023-02-15T07:34:55;7.40;64.80
55828;DHT22;41758;51.992;5.890;2023-02-15T07:37:21;7.50;64.90
55828;DHT22;41758;51.992;5.890;2023-02-15T07:39:47;7.50;65.00
55828;DHT22;41758;51.992;5.890;2023-02-15T07:42:13;7.60;64.90
55828;DHT22;41758;51.992;5.890;2023-02-15T07:44:39;7.60;64.80
55828;DHT22;41758;51.992;5.890;2023-02-15T07:47:04;7.70;64.80
55828;DHT22;41758;51.992;5.890;2023-02-15T07:49:30;7.70;64.80
55828;DHT22;41758;51.992;5.890;2023-02-15T07:51:56;7.80;65.00
55828;DHT22;41758;51.992;5.890;2023-02-15T07:54:21;7.80;64.90
55828;DHT22;41758;51.992;5.890;2023-02-15T07:56:47;7.80;64.60
55828;DHT22;41758;51.992;5.890;2023-02-15T07:59:13;7.80;64.60
55828;DHT22;41758;51.992;5.890;2023-02-15T08:01:39;7.80;64.90
55828;DHT22;41758;51.992;5.890;2023-02-15T08:04:06;7.90;64.80
55828;DHT22;41758;51.992;5.890;2023-02-15T08:06:34;7.90;64.90
55828;DHT22;41758;51.992;5.890;2023-02-15T08:09:02;8.00;64.60
55828;DHT22;41758;51.992;5.890;2023-02-15T08:11:30;8.00;64.50
55828;DHT22;41758;51.992;5.890;2023-02-15T08:14:07;8.00;64.50
55828;DHT22;41758;51.992;5.890;2023-02-15T08:16:41;8.10;64.10
55828;DHT22;41758;51.992;5.890;2023-02-15T08:21:34;8.10;64.50
55828;DHT22;41758;51.992;5.890;2023-02-15T08:24:00;8.10;64.30
55828;DHT22;41758;51.992;5.890;2023-02-15T08:26:27;8.20;64.20
55828;DHT22;41758;51.992;5.890;2023-02-15T08:28:54;8.20;64.30
55828;DHT22;41758;51.992;5.890;2023-02-15T08:31:20;8.30;64.20
55828;DHT22;41758;51.992;5.890;2023-02-15T08:33:47;8.30;64.10
55828;DHT22;41758;51.992;5.890;2023-02-15T08:36:19;8.30;63.90
55828;DHT22;41758;51.992;5.890;2023-02-15T08:38:45;8.30;63.70
55828;DHT22;41758;51.992;5.890;2023-02-15T08:41:23;8.40;63.70
55828;DHT22;41758;51.992;5.890;2023-02-15T08:43:53;8.40;63.50
55828;DHT22;41758;51.992;5.890;2023-02-15T08:46:21;8.40;63.50
55828;DHT22;41758;51.992;5.890;2023-02-15T08:48:47;8.40;63.20
55828;DHT22;41758;51.992;5.890;2023-02-15T08:51:25;8.40;63.20
55828;DHT22;41758;51.992;5.890;2023-02-15T08:53:56;8.50;63.20
55828;DHT22;41758;51.992;5.890;2023-02-15T08:56:29;8.50;63.20
55828;DHT22;41758;51.992;5.890;2023-02-15T08:58:56;8.50;62.80
55828;DHT22;41758;51.992;5.890;2023-02-15T09:01:24;8.60;62.30
55828;DHT22;41758;51.992;5.890;2023-02-15T09:03:54;8.60;62.30
55828;DHT22;41758;51.992;5.890;2023-02-15T09:06:21;8.60;62.90
55828;DHT22;41758;51.992;5.890;2023-02-15T09:08:47;8.70;62.60
55828;DHT22;41758;51.992;5.890;2023-02-15T09:11:37;8.70;62.50
55828;DHT22;41758;51.992;5.890;2023-02-15T09:14:03;8.80;62.80
55828;DHT22;41758;51.992;5.890;2023-02-15T09:16:31;8.80;62.40
55828;DHT22;41758;51.992;5.890;2023-02-15T09:18:57;8.90;62.40
55828;DHT22;41758;51.992;5.890;2023-02-15T09:21:25;9.00;62.30
55828;DHT22;41758;51.992;5.890;2023-02-15T09:23:56;9.00;62.20
55828;DHT22;41758;51.992;5.890;2023-02-15T09:26:24;9.10;62.10
55828;DHT22;41758;51.992;5.890;2023-02-15T09:28:54;9.20;62.60
55828;DHT22;41758;51.992;5.890;2023-02-15T09:31:23;9.30;62.10
55828;DHT22;41758;51.992;5.890;2023-02-15T09:33:49;9.30;61.80
55828;DHT22;41758;51.992;5.890;2023-02-15T09:38:45;9.40;62.20
55828;DHT22;41758;51.992;5.890;2023-02-15T09:41:28;9.50;61.80
55828;DHT22;41758;51.992;5.890;2023-02-15T10:01:14;9.90;61.50
55828;DHT22;41758;51.992;5.890;2023-02-15T10:06:44;10.10;61.50
55828;DHT22;41758;51.992;5.890;2023-02-15T10:26:22;11.30;60.20
55828;DHT22;41758;51.992;5.890;2023-02-15T10:29:07;11.60;60.60
55828;DHT22;41758;51.992;5.890;2023-02-15T10:34:19;12.30;58.00
55828;DHT22;41758;51.992;5.890;2023-02-15T10:37:04;12.70;57.50
55828;DHT22;41758;51.992;5.890;2023-02-15T10:48:29;13.60;54.50
55828;DHT22;41758;51.992;5.890;2023-02-15T10:51:05;13.50;54.70
55828;DHT22;41758;51.992;5.890;2023-02-15T10:53:36;13.50;55.00
55828;DHT22;41758;51.992;5.890;2023-02-15T10:58:50;13.70;54.80
55828;DHT22;41758;51.992;5.890;2023-02-15T11:04:37;13.80;53.90
55828;DHT22;41758;51.992;5.890;2023-02-15T11:12:30;13.80;53.80
55828;DHT22;41758;51.992;5.890;2023-02-15T11:17:42;13.90;53.80
55828;DHT22;41758;51.992;5.890;2023-02-15T11:20:24;14.10;53.70
55828;DHT22;41758;51.992;5.890;2023-02-15T11:22:54;14.40;53.20
55828;DHT22;41758;51.992;5.890;2023-02-15T11:25:33;14.70;52.00
55828;DHT22;41758;51.992;5.890;2023-02-15T11:28:03;15.00;51.60
55828;DHT22;41758;51.992;5.890;2023-02-15T11:30:43;15.00;51.50
55828;DHT22;41758;51.992;5.890;2023-02-15T11:33:30;15.10;51.60
55828;DHT22;41758;51.992;5.890;2023-02-15T11:36:41;15.20;50.50
55828;DHT22;41758;51.992;5.890;2023-02-15T11:39:01;15.20;49.60
55828;DHT22;41758;51.992;5.890;2023-02-15T11:41:32;15.20;49.80
55828;DHT22;41758;51.992;5.890;2023-02-15T11:44:10;15.30;49.80
55828;DHT22;41758;51.992;5.890;2023-02-15T11:46:37;15.30;49.60
55828;DHT22;41758;51.992;5.890;2023-02-15T11:49:33;15.40;50.40
55828;DHT22;41758;51.992;5.890;2023-02-15T11:52:12;15.50;49.70
55828;DHT22;41758;51.992;5.890;2023-02-15T11:54:49;15.70;49.10
55828;DHT22;41758;51.992;5.890;2023-02-15T11:57:40;16.00;49.60
55828;DHT22;41758;51.992;5.890;2023-02-15T12:00:35;16.40;49.30
55828;DHT22;41758;51.992;5.890;2023-02-15T12:03:21;16.50;48.50
55828;DHT22;41758;51.992;5.890;2023-02-15T12:06:04;16.80;47.90
55828;DHT22;41758;51.992;5.890;2023-02-15T12:08:46;16.90;47.60
55828;DHT22;41758;51.992;5.890;2023-02-15T12:11:22;17.00;47.00
55828;DHT22;41758;51.992;5.890;2023-02-15T12:14:11;17.10;47.20
55828;DHT22;41758;51.992;5.890;2023-02-15T12:19:36;17.60;46.10
55828;DHT22;41758;51.992;5.890;2023-02-15T12:22:08;18.00;45.90
55828;DHT22;41758;51.992;5.890;2023-02-15T12:24:56;18.30;45.80
55828;DHT22;41758;51.992;5.890;2023-02-15T12:27:32;18.60;44.50
55828;DHT22;41758;51.992;5.890;2023-02-15T12:30:25;18.90;43.90
55828;DHT22;41758;51.992;5.890;2023-02-15T12:35:45;19.80;43.40
55828;DHT22;41758;51.992;5.890;2023-02-15T12:41:10;20.20;40.90
55828;DHT22;41758;51.992;5.890;2023-02-15T12:44:05;20.20;40.30
55828;DHT22;41758;51.992;5.890;2023-02-15T12:46:31;20.40;40.70
55828;DHT22;41758;51.992;5.890;2023-02-15T12:52:05;21.00;39.50
55828;DHT22;41758;51.992;5.890;2023-02-15T12:54:36;21.30;40.00
55828;DHT22;41758;51.992;5.890;2023-02-15T13:02:28;22.10;39.60
55828;DHT22;41758;51.992;5.890;2023-02-15T13:04:56;22.40;39.40
55828;DHT22;41758;51.992;5.890;2023-02-15T13:07:25;22.60;37.10
55828;DHT22;41758;51.992;5.890;2023-02-15T13:09:55;22.60;36.70
55828;DHT22;41758;51.992;5.890;2023-02-15T13:12:25;22.40;37.50
55828;DHT22;41758;51.992;5.890;2023-02-15T13:14:56;22.40;37.70
55828;DHT22;41758;51.992;5.890;2023-02-15T13:17:31;22.30;37.70
55828;DHT22;41758;51.992;5.890;2023-02-15T13:20:16;21.90;37.10
55828;DHT22;41758;51.992;5.890;2023-02-15T13:22:45;21.30;38.00
55828;DHT22;41758;51.992;5.890;2023-02-15T13:25:19;20.80;38.50
55828;DHT22;41758;51.992;5.890;2023-02-15T13:27:52;20.20;38.10
55828;DHT22;41758;51.992;5.890;2023-02-15T13:30:35;19.80;38.90
55828;DHT22;41758;51.992;5.890;2023-02-15T13:33:05;19.40;39.50
55828;DHT22;41758;51.992;5.890;2023-02-15T13:35:42;19.10;39.90
55828;DHT22;41758;51.992;5.890;2023-02-15T13:38:37;18.80;40.60
55828;DHT22;41758;51.992;5.890;2023-02-15T13:41:11;18.60;40.90
55828;DHT22;41758;51.992;5.890;2023-02-15T13:43:47;18.40;41.50
55828;DHT22;41758;51.992;5.890;2023-02-15T13:58:36;17.90;43.10
55828;DHT22;41758;51.992;5.890;2023-02-15T14:00:57;17.80;43.70
55828;DHT22;41758;51.992;5.890;2023-02-15T14:04:01;17.70;43.70
55828;DHT22;41758;51.992;5.890;2023-02-15T14:10:18;17.50;44.20
55828;DHT22;41758;51.992;5.890;2023-02-15T14:18:35;17.30;44.90
55828;DHT22;41758;51.992;5.890;2023-02-15T14:21:21;17.30;45.10
55828;DHT22;41758;51.992;5.890;2023-02-15T14:24:04;17.10;45.20
55828;DHT22;41758;51.992;5.890;2023-02-15T14:26:56;17.10;45.20
55828;DHT22;41758;51.992;5.890;2023-02-15T14:32:13;17.10;46.60
55828;DHT22;41758;51.992;5.890;2023-02-15T14:35:13;17.00;47.20
55828;DHT22;41758;51.992;5.890;2023-02-15T14:37:47;17.00;47.00
55828;DHT22;41758;51.992;5.890;2023-02-15T14:49:12;16.80;47.10
55828;DHT22;41758;51.992;5.890;2023-02-15T15:02:48;16.80;48.00
55828;DHT22;41758;51.992;5.890;2023-02-15T15:05:34;16.70;47.80
55828;DHT22;41758;51.992;5.890;2023-02-15T15:08:04;16.70;47.60
55828;DHT22;41758;51.992;5.890;2023-02-15T15:10:48;16.60;48.00
55828;DHT22;41758;51.992;5.890;2023-02-15T15:15:56;16.60;48.20
55828;DHT22;41758;51.992;5.890;2023-02-15T15:21:10;16.50;48.10
55828;DHT22;41758;51.992;5.890;2023-02-15T15:31:41;16.40;48.40
55828;DHT22;41758;51.992;5.890;2023-02-15T15:45:54;16.10;48.80
55828;DHT22;41758;51.992;5.890;2023-02-15T15:48:37;16.10;49.00
55828;DHT22;41758;51.992;5.890;2023-02-15T15:51:19;16.00;49.20
55828;DHT22;41758;51.992;5.890;2023-02-15T15:53:49;16.00;49.60
55828;DHT22;41758;51.992;5.890;2023-02-15T15:56:21;15.90;49.50
55828;DHT22;41758;51.992;5.890;2023-02-15T15:58:54;15.90;49.80
55828;DHT22;41758;51.992;5.890;2023-02-15T16:01:27;15.80;50.10
55828;DHT22;41758;51.992;5.890;2023-02-15T16:03:54;15.80;50.00
55828;DHT22;41758;51.992;5.890;2023-02-15T16:06:36;15.80;50.30
55828;DHT22;41758;51.992;5.890;2023-02-15T16:09:29;15.70;50.30
55828;DHT22;41758;51.992;5.890;2023-02-15T16:11:59;15.60;51.50
55828;DHT22;41758;51.992;5.890;2023-02-15T16:14:32;15.60;51.50
55828;DHT22;41758;51.992;5.890;2023-02-15T16:17:03;15.50;52.20
55828;DHT22;41758;51.992;5.890;2023-02-15T16:19:33;15.40;52.20
55828;DHT22;41758;51.992;5.890;2023-02-15T16:22:01;15.30;52.40
55828;DHT22;41758;51.992;5.890;2023-02-15T16:30:30;15.10;52.40
55828;DHT22;41758;51.992;5.890;2023-02-15T16:33:05;15.10;52.40
55828;DHT22;41758;51.992;5.890;2023-02-15T16:35:31;15.00;52.50
55828;DHT22;41758;51.992;5.890;2023-02-15T16:37:57;14.90;52.90
55828;DHT22;41758;51.992;5.890;2023-02-15T16:43:00;14.80;52.80
55828;DHT22;41758;51.992;5.890;2023-02-15T16:45:27;14.80;52.90
55828;DHT22;41758;51.992;5.890;2023-02-15T16:47:57;14.70;53.10
55828;DHT22;41758;51.992;5.890;2023-02-15T16:50:31;14.70;53.10
55828;DHT22;41758;51.992;5.890;2023-02-15T16:52:59;14.70;52.90
55828;DHT22;41758;51.992;5.890;2023-02-15T16:55:35;14.60;53.20
55828;DHT22;41758;51.992;5.890;2023-02-15T16:58:03;14.60;53.70
55828;DHT22;41758;51.992;5.890;2023-02-15T17:00:37;14.60;53.50
55828;DHT22;41758;51.992;5.890;2023-02-15T17:03:06;14.50;54.30
55828;DHT22;41758;51.992;5.890;2023-02-15T17:05:46;14.40;55.20
55828;DHT22;41758;51.992;5.890;2023-02-15T17:11:09;14.40;55.30
55828;DHT22;41758;51.992;5.890;2023-02-15T17:13:36;14.40;55.30
55828;DHT22;41758;51.992;5.890;2023-02-15T17:18:44;14.30;54.80
55828;DHT22;41758;51.992;5.890;2023-02-15T17:21:18;14.20;54.80
55828;DHT22;41758;51.992;5.890;2023-02-15T17:23:51;14.20;55.00
55828;DHT22;41758;51.992;5.890;2023-02-15T17:26:26;14.10;55.50
55828;DHT22;41758;51.992;5.890;2023-02-15T17:28:55;14.00;55.00
55828;DHT22;41758;51.992;5.890;2023-02-15T17:31:26;14.00;54.70
55828;DHT22;41758;51.992;5.890;2023-02-15T17:33:57;13.90;54.90
55828;DHT22;41758;51.992;5.890;2023-02-15T17:36:25;13.90;55.20
55828;DHT22;41758;51.992;5.890;2023-02-15T17:41:42;13.80;55.20
55828;DHT22;41758;51.992;5.890;2023-02-15T17:44:09;13.80;54.80
55828;DHT22;41758;51.992;5.890;2023-02-15T17:46:39;13.80;55.40
55828;DHT22;41758;51.992;5.890;2023-02-15T17:49:06;13.80;55.60
55828;DHT22;41758;51.992;5.890;2023-02-15T17:51:32;13.70;55.70
55828;DHT22;41758;51.992;5.890;2023-02-15T17:54:01;13.70;55.40
55828;DHT22;41758;51.992;5.890;2023-02-15T17:56:46;13.60;55.60
55828;DHT22;41758;51.992;5.890;2023-02-15T17:59:11;13.60;55.90
55828;DHT22;41758;51.992;5.890;2023-02-15T18:01:47;13.50;55.70
55828;DHT22;41758;51.992;5.890;2023-02-15T18:04:33;13.50;56.00
55828;DHT22;41758;51.992;5.890;2023-02-15T18:07:19;13.50;55.90
55828;DHT22;41758;51.992;5.890;2023-02-15T18:10:14;13.30;55.90
55828;DHT22;41758;51.992;5.890;2023-02-15T18:12:59;13.30;55.50
55828;DHT22;41758;51.992;5.890;2023-02-15T18:15:25;13.30;55.60
55828;DHT22;41758;51.992;5.890;2023-02-15T18:17:50;13.20;56.10
55828;DHT22;41758;51.992;5.890;2023-02-15T18:20:32;13.20;56.10
55828;DHT22;41758;51.992;5.890;2023-02-15T18:22:59;13.10;56.10
55828;DHT22;41758;51.992;5.890;2023-02-15T18:25:26;13.10;56.90
55828;DHT22;41758;51.992;5.890;2023-02-15T18:27:52;13.00;56.60
55828;DHT22;41758;51.992;5.890;2023-02-15T18:30:20;13.00;56.40
55828;DHT22;41758;51.992;5.890;2023-02-15T18:32:47;12.90;56.40
55828;DHT22;41758;51.992;5.890;2023-02-15T18:35:17;12.90;56.40
55828;DHT22;41758;51.992;5.890;2023-02-15T18:37:43;12.90;56.20
55828;DHT22;41758;51.992;5.890;2023-02-15T18:40:17;12.90;57.00
55828;DHT22;41758;51.992;5.890;2023-02-15T18:42:44;12.80;57.70
55828;DHT22;41758;51.992;5.890;2023-02-15T18:45:24;12.80;56.80
55828;DHT22;41758;51.992;5.890;2023-02-15T18:47:53;12.80;56.70
55828;DHT22;41758;51.992;5.890;2023-02-15T18:50:20;12.80;57.20
55828;DHT22;41758;51.992;5.890;2023-02-15T18:52:48;12.80;57.10
55828;DHT22;41758;51.992;5.890;2023-02-15T18:55:22;12.70;57.10
55828;DHT22;41758;51.992;5.890;2023-02-15T18:57:51;12.70;56.90
55828;DHT22;41758;51.992;5.890;2023-02-15T19:00:23;12.70;57.10
55828;DHT22;41758;51.992;5.890;2023-02-15T19:02:55;12.70;56.90
55828;DHT22;41758;51.992;5.890;2023-02-15T19:05:21;12.60;56.50
55828;DHT22;41758;51.992;5.890;2023-02-15T19:07:48;12.60;56.90
55828;DHT22;41758;51.992;5.890;2023-02-15T19:10:25;12.50;58.00
55828;DHT22;41758;51.992;5.890;2023-02-15T19:12:53;12.60;57.60
55828;DHT22;41758;51.992;5.890;2023-02-15T19:15:27;12.50;57.10
55828;DHT22;41758;51.992;5.890;2023-02-15T19:17:55;12.50;57.70
55828;DHT22;41758;51.992;5.890;2023-02-15T19:20:23;12.50;57.40
55828;DHT22;41758;51.992;5.890;2023-02-15T19:22:51;12.50;57.70
55828;DHT22;41758;51.992;5.890;2023-02-15T19:25:25;12.50;57.80